Time;durP1;ratioP1;P1;durP2;ratioP2;P2;SDS_P1;SDS_P2;PMS_P1;PMS_P2;Temp;Humidity;BMP_temperature;BMP_pressure;BME280_temperature;BME280_humidity;BME280_pressure;Samples;Min_cycle;Max_cycle;Signal;HPM_P1;HPM_P2
2022/06/20 00:00:47;;;;;;;;;;;;;;;25.47;49.27;98865.13;7310348;19;130160;-39
2022/06/20 00:03:39;;;;;;;;;;;;;;;25.30;48.88;98858.41;7312562;19;129657;-39
2022/06/20 00:06:05;;;;;;;;;;;;;;;25.72;54.33;98874.38;7312497;19;129316;-39
2022/06/20 00:08:30;;;;;;;;;;;;;;;25.88;55.15;98874.19;7311423;19;129295;-41
2022/06/20 00:10:56;;;;;;;;;;;;;;;25.97;54.66;98880.13;7310568;19;129123;-39
2022/06/20 00:13:21;;;;;;;;;;;;;;;26.04;54.73;98889.81;7311835;19;128915;-38
2022/06/20 00:15:46;;;;;;;;;;;;;;;25.97;54.94;98867.78;7312996;19;129412;-39
2022/06/20 00:18:12;;;;;;;;;;;;;;;26.10;54.46;98896.16;7309722;19;129419;-39
2022/06/20 00:20:37;;;;;;;;;;;;;;;26.12;54.58;98908.13;7309445;19;129755;-41
2022/06/20 00:23:02;;;;;;;;;;;;;;;26.12;54.85;98908.13;7311833;19;128935;-39
2022/06/20 00:25:30;;;;;;;;;;;;;;;26.14;54.91;98914.03;7311659;19;128827;-40
2022/06/20 00:27:55;;;;;;;;;;;;;;;26.15;54.60;98926.19;7312350;19;130873;-40
2022/06/20 00:30:21;;;;;;;;;;;;;;;26.16;54.69;98934.94;7308422;19;129489;-41
2022/06/20 00:32:46;;;;;;;;;;;;;;;26.16;54.73;98951.56;7312775;19;129226;-39
2022/06/20 00:35:11;;;;;;;;;;;;;;;26.18;55.01;98944.25;7310514;19;130413;-37
2022/06/20 00:37:37;;;;;;;;;;;;;;;26.18;55.43;98939.00;7311773;19;128978;-39
2022/06/20 00:40:03;;;;;;;;;;;;;;;26.20;55.41;98946.72;7310127;19;130312;-40
2022/06/20 00:42:29;;;;;;;;;;;;;;;25.47;49.04;98951.97;7310940;19;129448;-42
2022/06/20 00:44:57;;;;;;;;;;;;;;;25.31;49.11;98945.06;7311676;19;129039;-37
2022/06/20 00:47:25;;;;;;;;;;;;;;;25.72;54.27;98928.88;7311838;19;130404;-37
2022/06/20 00:49:51;;;;;;;;;;;;;;;25.89;54.23;98933.75;7310637;19;132166;-39
2022/06/20 00:52:19;;;;;;;;;;;;;;;25.97;54.59;98931.00;7311512;19;128951;-40
2022/06/20 00:54:53;;;;;;;;;;;;;;;26.03;54.86;98927.66;7312263;19;129332;-41
2022/06/20 00:57:22;;;;;;;;;;;;;;;26.10;55.21;98931.19;7311305;19;129109;-39
2022/06/20 00:59:49;;;;;;;;;;;;;;;26.10;55.14;98920.66;7309021;19;130782;-39
2022/06/20 01:02:30;;;;;;;;;;;;;;;26.14;54.68;98921.94;7311808;19;129081;-41
2022/06/20 01:05:07;;;;;;;;;;;;;;;26.14;54.82;98916.66;7310814;19;129294;-40
2022/06/20 01:07:35;;;;;;;;;;;;;;;26.17;54.61;98900.47;7310769;19;129414;-39
2022/06/20 01:10:01;;;;;;;;;;;;;;;26.16;55.21;98892.78;7309835;19;130492;-41
2022/06/20 01:12:28;;;;;;;;;;;;;;;26.18;55.12;98886.28;7311924;19;128977;-39
2022/06/20 01:14:53;;;;;;;;;;;;;;;26.18;54.83;98885.50;7311336;19;128994;-41
2022/06/20 01:17:22;;;;;;;;;;;;;;;26.18;54.60;98886.28;7310516;19;129314;-41
2022/06/20 01:20:00;;;;;;;;;;;;;;;26.18;55.06;98886.28;7308037;19;130457;-40
2022/06/20 01:22:34;;;;;;;;;;;;;;;26.18;54.96;98881.03;7311590;19;129628;-41
2022/06/20 01:25:38;;;;;;;;;;;;;;;25.44;49.33;98868.94;7310812;19;131627;-40
2022/06/20 01:28:05;;;;;;;;;;;;;;;25.32;52.37;98835.34;7306432;19;129326;-40
2022/06/20 01:30:34;;;;;;;;;;;;;;;25.81;54.64;98846.94;7304337;19;129199;-39
2022/06/20 01:32:59;;;;;;;;;;;;;;;25.97;54.48;98840.63;7306949;19;129063;-39
2022/06/20 01:38:11;;;;;;;;;;;;;;;26.09;54.92;98837.38;7310377;19;129410;-40
2022/06/20 01:40:38;;;;;;;;;;;;;;;26.14;54.88;98840.25;7308231;19;129705;-40
2022/06/20 01:43:04;;;;;;;;;;;;;;;26.16;54.88;98829.53;7310946;19;129022;-40
2022/06/20 01:48:14;;;;;;;;;;;;;;;26.21;54.83;98816.59;7310358;19;129938;-38
2022/06/20 01:50:41;;;;;;;;;;;;;;;26.20;54.48;98799.97;7306604;19;129312;-40
2022/06/20 01:53:07;;;;;;;;;;;;;;;26.20;54.81;98788.59;7309907;19;131336;-39
2022/06/20 01:55:34;;;;;;;;;;;;;;;26.12;55.23;98771.13;7310320;19;129202;-38
2022/06/20 01:58:05;;;;;;;;;;;;;;;26.21;55.22;98785.81;7307513;19;130331;-39
2022/06/20 02:00:31;;;;;;;;;;;;;;;26.23;54.84;98783.78;7308516;19;130541;-39
2022/06/20 02:02:59;;;;;;;;;;;;;;;26.14;54.63;98779.66;7309717;19;129863;-41
2022/06/20 02:05:27;;;;;;;;;;;;;;;26.17;52.87;98783.72;7310412;19;131964;-41
2022/06/20 02:07:53;;;;;;;;;;;;;;;25.47;48.81;98787.00;7309514;19;129203;-41
2022/06/20 02:10:23;;;;;;;;;;;;;;;25.34;48.93;98785.97;7307304;19;130287;-40
2022/06/20 02:12:49;;;;;;;;;;;;;;;25.81;54.27;98789.00;7317349;19;129805;-41
2022/06/20 02:15:19;;;;;;;;;;;;;;;25.94;55.01;98794.41;7316023;19;131456;-41
2022/06/20 02:17:46;;;;;;;;;;;;;;;26.03;54.93;98795.94;7316115;19;131168;-41
2022/06/20 02:20:15;;;;;;;;;;;;;;;26.05;54.70;98780.78;7313504;19;130968;-41
2022/06/20 02:22:40;;;;;;;;;;;;;;;26.14;54.71;98781.47;7316880;19;128871;-40
2022/06/20 02:25:08;;;;;;;;;;;;;;;26.18;54.75;98786.16;7316036;19;129054;-38
2022/06/20 02:27:37;;;;;;;;;;;;;;;26.19;54.47;98787.81;7314195;19;130360;-40
2022/06/20 02:30:03;;;;;;;;;;;;;;;26.21;55.09;98790.25;7313986;19;130432;-38
2022/06/20 02:32:33;;;;;;;;;;;;;;;26.21;54.57;98788.44;7315493;19;129281;-38
2022/06/20 02:34:58;;;;;;;;;;;;;;;26.12;54.93;98789.56;7316611;19;129518;-36
2022/06/20 02:37:24;;;;;;;;;;;;;;;26.22;54.86;98813.78;7315343;19;130826;-41
2022/06/20 02:39:54;;;;;;;;;;;;;;;26.23;54.60;98819.88;7313561;19;129878;-41
2022/06/20 02:42:23;;;;;;;;;;;;;;;26.24;54.96;98832.03;7315480;19;129002;-41
2022/06/20 02:44:48;;;;;;;;;;;;;;;26.23;54.88;98841.75;7315171;19;130527;-41
2022/06/20 02:47:14;;;;;;;;;;;;;;;26.23;54.87;98847.03;7314478;19;129674;-42
2022/06/20 02:49:40;;;;;;;;;;;;;;;25.40;49.04;98836.09;7312908;19;129555;-38
2022/06/20 02:52:08;;;;;;;;;;;;;;;25.39;48.52;98831.00;7314239;19;129395;-37
2022/06/20 02:54:36;;;;;;;;;;;;;;;25.81;54.13;98825.88;7315815;19;128989;-39
2022/06/20 02:57:07;;;;;;;;;;;;;;;25.97;54.85;98814.28;7313799;19;130164;-39
2022/06/20 02:59:40;;;;;;;;;;;;;;;26.04;54.69;98810.75;7311874;19;130034;-41
2022/06/20 03:02:09;;;;;;;;;;;;;;;26.11;54.96;98814.28;7314930;19;130194;-38
2022/06/20 03:04:36;;;;;;;;;;;;;;;26.17;54.42;98821.44;7315503;19;129415;-40
2022/06/20 03:07:05;;;;;;;;;;;;;;;26.19;54.80;98803.63;7314733;19;130167;-39
2022/06/20 03:09:32;;;;;;;;;;;;;;;26.21;55.10;98809.53;7312320;19;129210;-41
2022/06/20 03:11:59;;;;;;;;;;;;;;;26.23;54.92;98810.13;7312931;19;128920;-39
2022/06/20 03:14:29;;;;;;;;;;;;;;;26.23;54.70;98809.34;7311614;19;129469;-39
2022/06/20 03:16:56;;;;;;;;;;;;;;;26.16;54.44;98788.19;7314411;19;130192;-38
2022/06/20 03:19:25;;;;;;;;;;;;;;;26.25;54.94;98802.03;7311793;19;130256;-41
2022/06/20 03:21:52;;;;;;;;;;;;;;;26.26;54.36;98787.88;7315025;19;129005;-40
2022/06/20 03:24:18;;;;;;;;;;;;;;;26.25;54.45;98781.78;7314131;19;129300;-39
2022/06/20 03:26:43;;;;;;;;;;;;;;;26.24;54.97;98795.97;7315117;19;130077;-41
2022/06/20 03:29:12;;;;;;;;;;;;;;;25.95;50.69;98803.16;7313136;19;129955;-39
2022/06/20 03:31:37;;;;;;;;;;;;;;;25.47;48.45;98801.97;7313211;19;129042;-41
2022/06/20 03:34:02;;;;;;;;;;;;;;;25.47;52.32;98791.44;7314437;19;129465;-39
2022/06/20 03:36:28;;;;;;;;;;;;;;;25.88;54.53;98799.63;7312449;19;129086;-40
2022/06/20 03:38:54;;;;;;;;;;;;;;;25.98;54.59;98811.47;7313226;19;130660;-41
2022/06/20 03:41:22;;;;;;;;;;;;;;;26.08;54.74;98814.63;7310764;19;128826;-39
2022/06/20 03:44:09;;;;;;;;;;;;;;;26.13;54.95;98819.38;7314221;19;128924;-40
2022/06/20 03:46:41;;;;;;;;;;;;;;;26.08;54.35;98809.38;7312324;19;129525;-39
2022/06/20 03:49:06;;;;;;;;;;;;;;;26.20;55.06;98821.06;7312418;19;129283;-38
2022/06/20 03:51:35;;;;;;;;;;;;;;;26.14;55.04;98807.81;7312938;19;130798;-41
2022/06/20 03:54:21;;;;;;;;;;;;;;;26.24;54.35;98811.78;7312691;19;129419;-38
2022/06/20 03:57:12;;;;;;;;;;;;;;;26.26;54.45;98811.59;7312468;19;129645;-41
2022/06/20 03:59:41;;;;;;;;;;;;;;;26.26;54.84;98804.47;7308999;19;130349;-40
2022/06/20 04:02:27;;;;;;;;;;;;;;;26.25;55.30;98818.66;7314455;19;129025;-41
2022/06/20 04:05:05;;;;;;;;;;;;;;;26.28;54.66;98806.97;7311163;19;131096;-40
2022/06/20 04:07:51;;;;;;;;;;;;;;;26.25;54.67;98797.59;7312461;19;129706;-40
2022/06/20 04:13:26;;;;;;;;;;;;;;;25.45;48.57;98777.66;7314097;19;131306;-41
2022/06/20 04:15:54;;;;;;;;;;;;;;;25.58;54.06;98765.44;7311391;19;129186;-38
2022/06/20 04:18:28;;;;;;;;;;;;;;;25.94;54.17;98762.81;7308859;19;129444;-36
2022/06/20 04:21:12;;;;;;;;;;;;;;;25.95;54.79;98735.47;7310433;19;130758;-37
2022/06/20 04:23:50;;;;;;;;;;;;;;;26.11;54.57;98752.88;7312105;19;129551;-39
2022/06/20 04:26:54;;;;;;;;;;;;;;;26.15;55.16;98749.66;7312679;19;129326;-39
2022/06/20 04:29:22;;;;;;;;;;;;;;;26.19;54.92;98737.75;7306128;19;131371;-40
2022/06/20 04:31:47;;;;;;;;;;;;;;;26.22;54.63;98737.38;7308517;19;129267;-39
2022/06/20 04:34:26;;;;;;;;;;;;;;;26.22;55.10;98745.28;7308197;19;129452;-39
2022/06/20 04:37:00;;;;;;;;;;;;;;;26.23;54.40;98752.16;7310143;19;129954;-40
2022/06/20 04:39:37;;;;;;;;;;;;;;;26.25;54.83;98757.25;7308168;19;130065;-40
2022/06/20 04:42:08;;;;;;;;;;;;;;;26.26;54.97;98757.03;7308858;19;130271;-37
2022/06/20 04:44:37;;;;;;;;;;;;;;;26.23;55.09;98757.44;7313033;19;130619;-41
2022/06/20 04:47:02;;;;;;;;;;;;;;;26.25;54.90;98750.16;7309479;19;129306;-39
2022/06/20 04:49:27;;;;;;;;;;;;;;;26.27;55.30;98747.31;7309912;19;129882;-39
2022/06/20 04:51:53;;;;;;;;;;;;;;;25.62;48.92;98737.75;7310546;19;130149;-38
2022/06/20 04:54:20;;;;;;;;;;;;;;;25.45;49.03;98732.91;7308938;19;130396;-38
2022/06/20 04:56:46;;;;;;;;;;;;;;;25.85;54.22;98705.19;7312902;19;130021;-39
2022/06/20 04:59:15;;;;;;;;;;;;;;;26.03;54.04;98677.41;7307539;19;130077;-40
2022/06/20 05:01:40;;;;;;;;;;;;;;;26.13;54.05;98661.28;7311423;19;131387;-40
2022/06/20 05:04:12;;;;;;;;;;;;;;;26.20;54.33;98652.41;7309820;19;129014;-36
2022/06/20 05:06:39;;;;;;;;;;;;;;;26.20;54.43;98652.41;7309592;19;130906;-40
2022/06/20 05:09:12;;;;;;;;;;;;;;;26.22;54.75;98671.50;7309265;19;129651;-40
2022/06/20 05:11:44;;;;;;;;;;;;;;;26.25;55.10;98684.28;7308296;19;130494;-39
2022/06/20 05:14:22;;;;;;;;;;;;;;;26.27;54.27;98679.63;7306896;19;130024;-39
2022/06/20 05:16:50;;;;;;;;;;;;;;;26.28;54.49;98677.81;7286782;19;130452;-37
2022/06/20 05:19:18;;;;;;;;;;;;;;;26.30;54.18;98673.97;7291331;19;129495;-39
2022/06/20 05:21:46;;;;;;;;;;;;;;;26.32;54.75;98671.97;7305671;19;133863;-37
2022/06/20 05:24:16;;;;;;;;;;;;;;;26.34;54.65;98667.31;7308228;19;129424;-40
2022/06/20 05:26:43;;;;;;;;;;;;;;;26.33;54.72;98657.78;7308084;19;129199;-38
2022/06/20 05:29:17;;;;;;;;;;;;;;;26.34;54.63;98640.97;7305440;19;131027;-39
2022/06/20 05:31:45;;;;;;;;;;;;;;;26.36;54.63;98640.78;7310594;19;130192;-40
2022/06/20 05:34:16;;;;;;;;;;;;;;;25.75;48.09;98652.81;7303696;19;129164;-38
2022/06/20 05:37:00;;;;;;;;;;;;;;;25.41;47.96;98657.97;7308702;19;129081;-41
2022/06/20 05:39:25;;;;;;;;;;;;;;;25.91;54.55;98676.28;7302554;19;130116;-40
2022/06/20 05:41:50;;;;;;;;;;;;;;;26.08;54.46;98658.41;7308264;19;130491;-38
2022/06/20 05:44:16;;;;;;;;;;;;;;;26.17;54.64;98651.97;7308450;19;129101;-39
2022/06/20 05:46:42;;;;;;;;;;;;;;;26.20;54.20;98656.84;7312753;19;129599;-40
2022/06/20 05:49:11;;;;;;;;;;;;;;;26.22;54.62;98660.13;7315181;19;129678;-39
2022/06/20 05:51:38;;;;;;;;;;;;;;;26.24;54.79;98664.22;7315939;19;129421;-37
2022/06/20 05:54:10;;;;;;;;;;;;;;;26.24;54.90;98664.22;7317211;19;130517;-41
2022/06/20 05:56:37;;;;;;;;;;;;;;;26.24;54.86;98661.56;7315810;19;128994;-37
2022/06/20 05:59:03;;;;;;;;;;;;;;;26.23;55.16;98652.03;7309274;19;130697;-40
2022/06/20 06:01:32;;;;;;;;;;;;;;;26.22;54.91;98655.69;7317453;19;129370;-40
2022/06/20 06:04:06;;;;;;;;;;;;;;;26.23;54.54;98659.94;7310886;19;130169;-37
2022/06/20 06:06:55;;;;;;;;;;;;;;;26.22;55.24;98675.94;7315735;19;129132;-39
2022/06/20 06:09:26;;;;;;;;;;;;;;;26.15;55.32;98670.63;7312416;19;130643;-40
2022/06/20 06:11:54;;;;;;;;;;;;;;;26.23;55.30;98715.25;7315948;19;129795;-40
2022/06/20 06:14:40;;;;;;;;;;;;;;;26.26;54.88;98798.41;7314396;19;129159;-39
2022/06/20 06:17:08;;;;;;;;;;;;;;;25.72;48.58;98863.84;7315397;19;129832;-38
2022/06/20 06:19:51;;;;;;;;;;;;;;;25.44;48.34;98826.00;7312450;19;129634;-40
2022/06/20 06:22:49;;;;;;;;;;;;;;;25.85;54.04;98748.13;7313984;19;129457;-40
2022/06/20 06:25:14;;;;;;;;;;;;;;;26.04;54.61;98768.63;7310264;19;130174;-40
2022/06/20 06:27:40;;;;;;;;;;;;;;;26.05;54.56;98796.56;7312235;19;129371;-39
2022/06/20 06:30:26;;;;;;;;;;;;;;;26.18;54.48;98817.78;7310779;19;130147;-39
2022/06/20 06:32:54;;;;;;;;;;;;;;;26.12;54.49;98786.94;7312693;19;129479;-39
2022/06/20 06:35:19;;;;;;;;;;;;;;;26.27;54.19;98826.38;7313874;19;129193;-38
2022/06/20 06:37:52;;;;;;;;;;;;;;;26.22;54.73;98803.25;7313595;19;129048;-38
2022/06/20 06:40:23;;;;;;;;;;;;;;;26.31;54.62;98793.41;7311725;19;131084;-39
2022/06/20 06:42:50;;;;;;;;;;;;;;;26.31;54.38;98791.56;7313494;19;130572;-40
2022/06/20 06:45:21;;;;;;;;;;;;;;;26.32;54.98;98793.19;7314063;19;129040;-39
2022/06/20 06:47:49;;;;;;;;;;;;;;;26.32;54.64;98809.00;7313565;19;129202;-40
2022/06/20 06:50:26;;;;;;;;;;;;;;;26.32;54.71;98801.09;7311470;19;131128;-39
2022/06/20 06:52:56;;;;;;;;;;;;;;;26.32;54.38;98798.47;7312673;19;129818;-39
2022/06/20 06:55:28;;;;;;;;;;;;;;;26.32;54.55;98810.81;7312619;19;129419;-39
2022/06/20 06:57:56;;;;;;;;;;;;;;;25.91;49.48;98809.78;7312337;19;129583;-40
2022/06/20 07:00:29;;;;;;;;;;;;;;;25.40;48.06;98795.81;7307727;19;130110;-36
2022/06/20 07:02:56;;;;;;;;;;;;;;;25.66;53.76;98806.66;7312424;19;129681;-40
2022/06/20 07:05:29;;;;;;;;;;;;;;;26.01;54.20;98840.13;7312483;19;129255;-38
2022/06/20 07:08:04;;;;;;;;;;;;;;;26.08;54.60;98834.91;7312867;19;129207;-39
2022/06/20 07:10:42;;;;;;;;;;;;;;;26.15;54.53;98833.97;7312557;19;129655;-38
2022/06/20 07:13:17;;;;;;;;;;;;;;;26.14;54.77;98823.63;7309815;19;131084;-38
2022/06/20 07:15:43;;;;;;;;;;;;;;;26.24;54.39;98826.78;7314279;19;130100;-39
2022/06/20 07:18:19;;;;;;;;;;;;;;;26.27;54.50;98831.66;7312276;19;130817;-36
2022/06/20 07:20:45;;;;;;;;;;;;;;;26.29;54.50;98856.84;7157056;19;2938756;-38
2022/06/20 07:23:14;;;;;;;;;;;;;;;26.31;54.46;98852.16;7313206;19;130803;-37
2022/06/20 07:25:41;;;;;;;;;;;;;;;26.32;54.75;98834.53;7307883;19;130548;-38
2022/06/20 07:28:13;;;;;;;;;;;;;;;26.34;54.82;98812.28;7314385;19;130277;-40
2022/06/20 07:30:41;;;;;;;;;;;;;;;26.34;54.63;98780.66;7311632;19;129200;-38
2022/06/20 07:33:09;;;;;;;;;;;;;;;26.33;54.84;98762.41;7314269;19;131205;-36
2022/06/20 07:35:43;;;;;;;;;;;;;;;26.34;54.58;98775.38;7312655;19;129216;-38
2022/06/20 07:38:24;;;;;;;;;;;;;;;26.32;54.68;98780.03;7307091;19;129396;-37
2022/06/20 07:40:51;;;;;;;;;;;;;;;26.23;54.49;98773.25;7308556;19;129990;-39
2022/06/20 07:43:25;;;;;;;;;;;;;;;25.45;47.82;98767.13;7310237;19;129279;-39
2022/06/20 07:45:51;;;;;;;;;;;;;;;25.63;53.56;98781.50;7312887;19;129589;-40
2022/06/20 07:48:24;;;;;;;;;;;;;;;25.97;53.99;98783.50;7303250;19;130188;-38
2022/06/20 07:50:53;;;;;;;;;;;;;;;26.11;54.24;98784.47;7310886;19;130820;-39
2022/06/20 07:53:27;;;;;;;;;;;;;;;26.17;54.26;98797.72;7302711;19;129744;-38
2022/06/20 07:56:01;;;;;;;;;;;;;;;26.24;54.21;98810.97;7314674;19;132095;-40
2022/06/20 07:58:30;;;;;;;;;;;;;;;26.19;53.93;98803.63;7307078;19;129374;-39
2022/06/20 08:00:55;;;;;;;;;;;;;;;26.27;54.44;98826.38;7309591;19;129480;-38
2022/06/20 08:03:26;;;;;;;;;;;;;;;26.28;54.48;98823.56;7310785;19;130330;-38
2022/06/20 08:05:56;;;;;;;;;;;;;;;26.30;54.89;98816.28;7310157;19;129443;-39
2022/06/20 08:08:22;;;;;;;;;;;;;;;26.31;54.57;98811.84;7311900;19;130805;-38
2022/06/20 08:10:54;;;;;;;;;;;;;;;26.29;54.34;98811.22;7310987;19;130589;-38
2022/06/20 08:13:39;;;;;;;;;;;;;;;26.30;55.02;98805.75;7312753;19;130259;-40
2022/06/20 08:16:09;;;;;;;;;;;;;;;26.29;54.59;98804.13;7313268;19;130868;-39
2022/06/20 08:18:34;;;;;;;;;;;;;;;26.31;54.84;98798.66;7310829;19;129624;-39
2022/06/20 08:21:04;;;;;;;;;;;;;;;26.32;54.81;98795.00;7309975;19;128921;-38
2022/06/20 08:23:36;;;;;;;;;;;;;;;25.82;48.71;98782.72;7302221;19;129728;-36
2022/06/20 08:26:06;;;;;;;;;;;;;;;25.45;48.64;98793.44;7309672;19;130474;-39
2022/06/20 08:28:35;;;;;;;;;;;;;;;25.73;54.39;98791.75;7306929;19;130778;-39
2022/06/20 08:31:15;;;;;;;;;;;;;;;25.97;54.66;98778.22;7302145;19;130464;-38
2022/06/20 08:33:41;;;;;;;;;;;;;;;26.10;54.44;98778.41;7312259;19;130093;-39
2022/06/20 08:36:42;;;;;;;;;;;;;;;26.17;54.74;98774.00;7311648;19;129068;-38
2022/06/20 08:39:13;;;;;;;;;;;;;;;26.23;54.49;98761.91;7303311;19;129880;-39
2022/06/20 08:41:41;;;;;;;;;;;;;;;26.26;54.43;98737.81;7309400;19;129482;-40
2022/06/20 08:44:29;;;;;;;;;;;;;;;26.25;54.61;98723.81;7304252;19;130952;-39
2022/06/20 08:46:58;;;;;;;;;;;;;;;26.28;54.36;98738.44;7310301;19;128977;-39
2022/06/20 08:49:41;;;;;;;;;;;;;;;26.29;54.49;98755.88;7305327;19;129696;-39
2022/06/20 08:52:13;;;;;;;;;;;;;;;26.30;54.94;98768.03;7309163;19;130178;-37
2022/06/20 08:54:47;;;;;;;;;;;;;;;26.30;54.55;98760.94;7306458;19;129210;-39
2022/06/20 08:57:35;;;;;;;;;;;;;;;26.28;54.87;98770.84;7306014;19;129977;-38
2022/06/20 09:00:04;;;;;;;;;;;;;;;26.31;54.26;98780.22;7305937;19;130316;-37
2022/06/20 09:02:38;;;;;;;;;;;;;;;26.31;55.09;98754.66;7308577;19;130210;-37
2022/06/20 09:05:12;;;;;;;;;;;;;;;26.30;54.43;98750.41;7291798;19;132784;-36
2022/06/20 09:08:01;;;;;;;;;;;;;;;25.58;48.63;98749.66;7297672;19;129824;-37
2022/06/20 09:10:50;;;;;;;;;;;;;;;25.37;48.37;98727.78;7299577;19;129378;-38
2022/06/20 09:13:27;;;;;;;;;;;;;;;25.93;54.59;98736.66;7300280;19;130172;-39
2022/06/20 09:16:11;;;;;;;;;;;;;;;26.07;53.90;98755.06;7300542;19;130278;-38
2022/06/20 09:18:36;;;;;;;;;;;;;;;26.16;54.25;98748.69;7299669;19;129906;-37
2022/06/20 09:21:08;;;;;;;;;;;;;;;26.25;54.61;98738.78;7298614;19;130601;-39
2022/06/20 09:23:52;;;;;;;;;;;;;;;26.25;54.41;98729.06;7306544;19;131382;-39
2022/06/20 09:26:17;;;;;;;;;;;;;;;26.30;54.45;98741.66;7302816;19;131177;-37
2022/06/20 09:29:01;;;;;;;;;;;;;;;26.31;54.51;98757.28;7307404;19;129453;-40
2022/06/20 09:31:29;;;;;;;;;;;;;;;26.32;54.31;98761.56;7306340;19;130886;-39
2022/06/20 09:34:11;;;;;;;;;;;;;;;26.31;54.50;98770.47;7308573;19;129714;-38
2022/06/20 09:36:39;;;;;;;;;;;;;;;26.32;53.98;98782.66;7302336;19;130241;-39
2022/06/20 09:39:08;;;;;;;;;;;;;;;26.26;54.89;98772.84;7307439;19;129492;-38
2022/06/20 09:41:36;;;;;;;;;;;;;;;26.33;54.63;98783.47;7306487;19;129198;-39
2022/06/20 09:44:10;;;;;;;;;;;;;;;26.34;54.73;98780.66;7309203;19;131476;-39
2022/06/20 09:46:44;;;;;;;;;;;;;;;26.32;54.76;98777.38;7302847;19;131171;-35
2022/06/20 09:49:27;;;;;;;;;;;;;;;25.68;48.93;98792.28;7304318;19;129416;-40
2022/06/20 09:52:00;;;;;;;;;;;;;;;25.44;48.24;98802.31;7303051;19;129277;-38
2022/06/20 09:54:41;;;;;;;;;;;;;;;25.81;53.85;98812.72;7308507;19;129269;-37
2022/06/20 09:57:14;;;;;;;;;;;;;;;26.00;53.95;98814.72;7294045;19;131513;-40
2022/06/20 09:59:54;;;;;;;;;;;;;;;26.11;54.36;98801.13;7300983;19;130286;-37
2022/06/20 10:02:49;;;;;;;;;;;;;;;26.15;54.42;98767.28;7306286;19;129833;-39
2022/06/20 10:05:26;;;;;;;;;;;;;;;26.23;54.55;98778.50;7296484;19;130428;-40
2022/06/20 10:07:56;;;;;;;;;;;;;;;26.25;54.41;98765.97;7306592;19;131893;-38
2022/06/20 10:10:30;;;;;;;;;;;;;;;26.28;54.28;98780.59;7297859;19;129357;-40
2022/06/20 10:13:07;;;;;;;;;;;;;;;26.29;54.56;98777.78;7296519;19;128930;-37
2022/06/20 10:15:32;;;;;;;;;;;;;;;26.30;54.65;98782.03;7296671;19;129585;-37
2022/06/20 10:18:12;;;;;;;;;;;;;;;26.30;54.83;98791.75;7302454;19;129844;-40
2022/06/20 10:20:45;;;;;;;;;;;;;;;26.31;54.42;98802.09;7298516;19;129586;-38
2022/06/20 10:23:16;;;;;;;;;;;;;;;26.32;54.78;98802.91;7301812;19;129443;-38
2022/06/20 10:26:01;;;;;;;;;;;;;;;26.32;54.53;98803.75;7298443;19;129358;-37
2022/06/20 10:28:40;;;;;;;;;;;;;;;26.23;54.45;98794.31;7300886;19;130178;-36
2022/06/20 10:31:18;;;;;;;;;;;;;;;25.64;48.29;98820.00;7292793;19;130201;-35
2022/06/20 10:33:58;;;;;;;;;;;;;;;25.43;48.67;98809.44;7303393;19;130025;-38
2022/06/20 10:36:46;;;;;;;;;;;;;;;25.87;54.01;98819.88;7307205;19;129864;-40
2022/06/20 10:39:30;;;;;;;;;;;;;;;25.98;54.43;98813.31;7305194;19;130301;-37
2022/06/20 10:42:08;;;;;;;;;;;;;;;26.06;54.75;98834.28;7309789;19;130141;-38
2022/06/20 10:44:33;;;;;;;;;;;;;;;26.15;54.07;98835.78;7301031;19;130280;-37
2022/06/20 10:47:05;;;;;;;;;;;;;;;26.24;54.08;98853.94;7304194;19;129756;-37
2022/06/20 10:49:49;;;;;;;;;;;;;;;26.28;54.76;98860.47;7301096;19;130424;-36
2022/06/20 10:52:20;;;;;;;;;;;;;;;26.30;54.48;98857.63;7309693;19;129238;-39
2022/06/20 10:55:09;;;;;;;;;;;;;;;26.31;54.79;98864.56;7307740;19;130805;-37
2022/06/20 10:58:04;;;;;;;;;;;;;;;26.31;54.43;98860.06;7304663;19;130051;-37
2022/06/20 11:00:33;;;;;;;;;;;;;;;26.27;54.45;98863.28;7298809;19;130388;-36
2022/06/20 11:03:20;;;;;;;;;;;;;;;26.32;54.80;98871.44;7305794;19;129880;-37
2022/06/20 11:05:48;;;;;;;;;;;;;;;26.32;54.17;98877.53;7296019;19;130287;-36
2022/06/20 11:08:13;;;;;;;;;;;;;;;26.32;55.03;98869.63;7301146;19;130188;-37
2022/06/20 11:10:58;;;;;;;;;;;;;;;26.32;55.14;98861.72;7296221;19;129115;-37
2022/06/20 11:13:36;;;;;;;;;;;;;;;25.55;49.49;98868.47;7301741;19;130409;-37
2022/06/20 11:16:11;;;;;;;;;;;;;;;25.41;49.01;98876.38;7309436;19;129038;-36
2022/06/20 11:18:44;;;;;;;;;;;;;;;25.89;54.69;98891.63;7294743;19;131725;-37
2022/06/20 11:21:20;;;;;;;;;;;;;;;26.03;54.04;98901.31;7303155;19;129691;-37
2022/06/20 11:23:52;;;;;;;;;;;;;;;26.12;54.54;98910.75;7300870;19;132344;-36
2022/06/20 11:26:38;;;;;;;;;;;;;;;26.21;54.55;98906.19;7307639;19;129328;-36
2022/06/20 11:29:10;;;;;;;;;;;;;;;26.26;54.59;98912.53;7300707;19;131748;-37
2022/06/20 11:31:51;;;;;;;;;;;;;;;26.28;54.95;98926.34;7306981;19;130440;-37
2022/06/20 11:34:28;;;;;;;;;;;;;;;26.28;54.37;98939.53;7296384;19;130547;-37
2022/06/20 11:36:54;;;;;;;;;;;;;;;26.30;54.61;98940.16;7303629;19;129460;-37
2022/06/20 11:39:19;;;;;;;;;;;;;;;26.32;54.71;98942.59;7296465;19;130547;-37
2022/06/20 11:41:48;;;;;;;;;;;;;;;26.34;54.82;98937.97;7303855;19;130270;-37
2022/06/20 11:44:33;;;;;;;;;;;;;;;26.32;54.63;98927.63;7286696;19;129800;-36
2022/06/20 11:47:13;;;;;;;;;;;;;;;26.33;54.55;98958.22;7296731;19;130579;-37
2022/06/20 11:49:44;;;;;;;;;;;;;;;26.33;54.29;98955.59;7295291;19;129576;-37
2022/06/20 11:52:15;;;;;;;;;;;;;;;26.24;55.09;98937.44;7295686;19;130333;-37
2022/06/20 11:54:58;;;;;;;;;;;;;;;25.61;48.71;98967.00;7302959;19;129521;-36
2022/06/20 11:57:37;;;;;;;;;;;;;;;25.41;48.86;98965.88;7294245;19;129875;-37
2022/06/20 12:00:03;;;;;;;;;;;;;;;25.92;54.46;98967.63;7292182;19;130199;-37
2022/06/20 12:02:37;;;;;;;;;;;;;;;25.96;54.19;98961.00;7287199;19;131082;-37
2022/06/20 12:05:03;;;;;;;;;;;;;;;26.17;54.73;98978.72;7288645;19;130434;-37
2022/06/20 12:07:35;;;;;;;;;;;;;;;26.25;54.04;98984.69;7281388;19;130500;-37
2022/06/20 12:10:16;;;;;;;;;;;;;;;26.29;54.48;98993.88;7296220;19;130462;-36
2022/06/20 12:12:54;;;;;;;;;;;;;;;26.30;54.50;98995.50;7306053;19;129653;-36
2022/06/20 12:15:28;;;;;;;;;;;;;;;26.33;54.18;99005.66;7296962;19;129045;-37
2022/06/20 12:18:00;;;;;;;;;;;;;;;26.33;54.90;99008.31;7307550;19;129160;-37
2022/06/20 12:23:27;;;;;;;;;;;;;;;26.33;54.16;99018.84;7290866;19;129958;-37
2022/06/20 12:26:07;;;;;;;;;;;;;;;26.25;54.54;99007.59;7295691;19;131787;-36
2022/06/20 12:28:34;;;;;;;;;;;;;;;26.34;54.85;99032.84;7289049;19;130258;-37
2022/06/20 12:31:08;;;;;;;;;;;;;;;26.32;54.43;99035.69;7285427;19;131204;-37
2022/06/20 12:33:38;;;;;;;;;;;;;;;26.34;54.37;99023.13;7296766;19;130868;-39
2022/06/20 12:36:10;;;;;;;;;;;;;;;25.67;48.86;99006.56;7305703;19;130202;-44
2022/06/20 12:38:40;;;;;;;;;;;;;;;25.46;48.59;99026.69;7303752;19;129639;-32
2022/06/20 12:41:09;;;;;;;;;;;;;;;25.71;54.53;99022.84;7305330;19;130170;-34
2022/06/20 12:43:35;;;;;;;;;;;;;;;25.97;54.21;99028.47;7308253;19;130423;-36
2022/06/20 12:46:00;;;;;;;;;;;;;;;26.07;54.21;99036.97;7308872;19;128817;-38
2022/06/20 12:48:28;;;;;;;;;;;;;;;26.14;54.51;99043.16;7312334;19;129482;-32
2022/06/20 12:51:16;;;;;;;;;;;;;;;26.21;54.82;99049.34;7311276;19;130102;-38
2022/06/20 12:53:57;;;;;;;;;;;;;;;26.23;54.67;99049.94;7312145;19;131673;-37
2022/06/20 12:56:31;;;;;;;;;;;;;;;26.26;54.69;99060.13;7310708;19;129621;-37
2022/06/20 12:59:26;;;;;;;;;;;;;;;26.22;54.71;99058.84;7312105;19;129511;-37
2022/06/20 13:02:10;;;;;;;;;;;;;;;26.25;54.46;99060.28;7310015;19;129473;-42
2022/06/20 13:04:58;;;;;;;;;;;;;;;26.26;54.59;99062.75;7313629;19;131455;-41
2022/06/20 13:07:32;;;;;;;;;;;;;;;26.23;54.85;99078.94;7311615;19;130417;-33
2022/06/20 13:10:17;;;;;;;;;;;;;;;26.23;54.45;99073.66;7313517;19;129844;-34
2022/06/20 13:12:45;;;;;;;;;;;;;;;26.24;54.97;99070.03;7309322;19;129215;-36